Terminal Aerodrome Forecast
Issued by NWS

Home | Current Version | Previous Version | Graphics & Text | Print | Product List | Glossary On
Versions: 1 2 3 4 5 6 7 8 9 10 11 12 13 14 15 16 17 18 19
000
FTUS43 KICT 271730
TAFHUT
TAF
KHUT 271730Z 2718/2818 10008KT 2SM -SN OVC040
      TEMPO 2718/2720 1SM -SN OVC020
     FM272100 13010KT P6SM OVC020
     FM281200 14010KT 5SM -SN OVC020
     FM281400 15010KT 2SM -SN OVC010=

USA.gov is the U.S. government's official web portal to all federal, state and local government web resources and services.